sensor_id;sensor_type;location;lat;lon;timestamp;pressure;altitude;pressure_sealevel;temperature;humidity
77954;BME280;67151;52.544;6.034;2023-05-09T00:00:03;101710;;;25.1;44.3
77954;BME280;67151;52.544;6.034;2023-05-09T00:00:18;101710;;;25.1;44.3
77954;BME280;67151;52.544;6.034;2023-05-09T00:00:33;101710;;;25.1;44.3
77954;BME280;67151;52.544;6.034;2023-05-09T00:00:47;101710;;;25.1;44.3
77954;BME280;67151;52.544;6.034;2023-05-09T00:01:04;101700;;;25.1;44.3
77954;BME280;67151;52.544;6.034;2023-05-09T00:01:18;101710;;;25.1;44.3
77954;BME280;67151;52.544;6.034;2023-05-09T00:01:33;101710;;;25.1;44.3
77954;BME280;67151;52.544;6.034;2023-05-09T00:01:48;101710;;;25.1;44.2
77954;BME280;67151;52.544;6.034;2023-05-09T00:02:03;101710;;;25.1;44.3
77954;BME280;67151;52.544;6.034;2023-05-09T00:02:17;101710;;;25.1;44.2
77954;BME280;67151;52.544;6.034;2023-05-09T00:02:33;101710;;;25.1;44.2
77954;BME280;67151;52.544;6.034;2023-05-09T00:02:48;101710;;;25.1;44.2
77954;BME280;67151;52.544;6.034;2023-05-09T00:03:03;101710;;;25.1;44.2
77954;BME280;67151;52.544;6.034;2023-05-09T00:03:17;101710;;;25.1;44.3
77954;BME280;67151;52.544;6.034;2023-05-09T00:03:32;101710;;;25.1;44.2
77954;BME280;67151;52.544;6.034;2023-05-09T00:03:47;101700;;;25.1;44.3
77954;BME280;67151;52.544;6.034;2023-05-09T00:04:03;101710;;;25.1;44.2
77954;BME280;67151;52.544;6.034;2023-05-09T00:04:17;101700;;;25.1;44.2
77954;BME280;67151;52.544;6.034;2023-05-09T00:04:33;101710;;;25.1;44.3
77954;BME280;67151;52.544;6.034;2023-05-09T00:04:47;101710;;;25.1;44.3
77954;BME280;67151;52.544;6.034;2023-05-09T00:05:03;101700;;;25.1;44.3
77954;BME280;67151;52.544;6.034;2023-05-09T00:05:18;101700;;;25.1;44.3
77954;BME280;67151;52.544;6.034;2023-05-09T00:05:33;101720;;;25.1;44.3
77954;BME280;67151;52.544;6.034;2023-05-09T00:05:48;101700;;;25.1;44.2
77954;BME280;67151;52.544;6.034;2023-05-09T00:06:03;101700;;;25.1;44.3
77954;BME280;67151;52.544;6.034;2023-05-09T00:06:18;101700;;;25.1;44.3
77954;BME280;67151;52.544;6.034;2023-05-09T00:06:32;101700;;;25.1;44.3
77954;BME280;67151;52.544;6.034;2023-05-09T00:06:47;101700;;;25.1;44.3
77954;BME280;67151;52.544;6.034;2023-05-09T00:07:03;101700;;;25.1;44.3
77954;BME280;67151;52.544;6.034;2023-05-09T00:07:17;101700;;;25.1;44.3
77954;BME280;67151;52.544;6.034;2023-05-09T00:07:33;101700;;;25.1;44.3
77954;BME280;67151;52.544;6.034;2023-05-09T00:07:48;101710;;;25.1;44.3
77954;BME280;67151;52.544;6.034;2023-05-09T00:08:03;101700;;;25.1;44.3
77954;BME280;67151;52.544;6.034;2023-05-09T00:08:18;101710;;;25.1;44.3
77954;BME280;67151;52.544;6.034;2023-05-09T00:08:33;101710;;;25;44.4
77954;BME280;67151;52.544;6.034;2023-05-09T00:08:47;101710;;;25.1;44.4
77954;BME280;67151;52.544;6.034;2023-05-09T00:09:03;101700;;;25.1;44.4
77954;BME280;67151;52.544;6.034;2023-05-09T00:09:17;101700;;;25.1;44.4
77954;BME280;67151;52.544;6.034;2023-05-09T00:09:34;101700;;;25.1;44.3
77954;BME280;67151;52.544;6.034;2023-05-09T00:09:47;101700;;;25.1;44.4
77954;BME280;67151;52.544;6.034;2023-05-09T00:10:03;101710;;;25.1;44.3
77954;BME280;67151;52.544;6.034;2023-05-09T00:10:18;101700;;;25.1;44.3
77954;BME280;67151;52.544;6.034;2023-05-09T00:10:32;101710;;;25.1;44.3
77954;BME280;67151;52.544;6.034;2023-05-09T00:10:47;101710;;;25.1;44.3
77954;BME280;67151;52.544;6.034;2023-05-09T00:11:03;101710;;;25.1;44.3
77954;BME280;67151;52.544;6.034;2023-05-09T00:11:17;101710;;;25;44.4
77954;BME280;67151;52.544;6.034;2023-05-09T00:11:33;101710;;;25;44.4
77954;BME280;67151;52.544;6.034;2023-05-09T00:11:47;101700;;;25;44.4
77954;BME280;67151;52.544;6.034;2023-05-09T00:12:03;101710;;;25;44.4
77954;BME280;67151;52.544;6.034;2023-05-09T00:12:17;101710;;;25;44.4
77954;BME280;67151;52.544;6.034;2023-05-09T00:12:33;101700;;;25;44.4
77954;BME280;67151;52.544;6.034;2023-05-09T00:12:47;101700;;;25.1;44.4
77954;BME280;67151;52.544;6.034;2023-05-09T00:13:03;101700;;;25.1;44.4
77954;BME280;67151;52.544;6.034;2023-05-09T00:13:19;101710;;;25.1;44.3
77954;BME280;67151;52.544;6.034;2023-05-09T00:13:32;101690;;;25.1;44.3
77954;BME280;67151;52.544;6.034;2023-05-09T00:13:48;101700;;;25.1;44.3
77954;BME280;67151;52.544;6.034;2023-05-09T00:14:03;101690;;;25.1;44.3
77954;BME280;67151;52.544;6.034;2023-05-09T00:14:17;101700;;;25.1;44.3
77954;BME280;67151;52.544;6.034;2023-05-09T00:14:33;101700;;;25.1;44.3
77954;BME280;67151;52.544;6.034;2023-05-09T00:14:48;101700;;;25.1;44.4
77954;BME280;67151;52.544;6.034;2023-05-09T00:15:03;101700;;;25.1;44.4
77954;BME280;67151;52.544;6.034;2023-05-09T00:15:17;101700;;;25;44.4
77954;BME280;67151;52.544;6.034;2023-05-09T00:15:33;101700;;;25;44.4
77954;BME280;67151;52.544;6.034;2023-05-09T00:15:48;101700;;;25;44.4
77954;BME280;67151;52.544;6.034;2023-05-09T00:16:03;101690;;;25;44.4
77954;BME280;67151;52.544;6.034;2023-05-09T00:16:17;101700;;;25.1;44.4
77954;BME280;67151;52.544;6.034;2023-05-09T00:16:33;101700;;;25;44.4
77954;BME280;67151;52.544;6.034;2023-05-09T00:16:47;101700;;;25;44.4
77954;BME280;67151;52.544;6.034;2023-05-09T00:17:03;101700;;;25;44.4
77954;BME280;67151;52.544;6.034;2023-05-09T00:17:17;101690;;;25;44.4
77954;BME280;67151;52.544;6.034;2023-05-09T00:17:33;101700;;;25;44.4
77954;BME280;67151;52.544;6.034;2023-05-09T00:17:48;101700;;;25;44.4
77954;BME280;67151;52.544;6.034;2023-05-09T00:18:03;101700;;;25;44.4
77954;BME280;67151;52.544;6.034;2023-05-09T00:18:18;101700;;;25;44.4
77954;BME280;67151;52.544;6.034;2023-05-09T00:18:33;101700;;;25;44.4
77954;BME280;67151;52.544;6.034;2023-05-09T00:18:48;101700;;;25;44.4
77954;BME280;67151;52.544;6.034;2023-05-09T00:19:03;101700;;;25;44.4
77954;BME280;67151;52.544;6.034;2023-05-09T00:19:17;101700;;;25;44.4
77954;BME280;67151;52.544;6.034;2023-05-09T00:19:32;101700;;;25;44.4
77954;BME280;67151;52.544;6.034;2023-05-09T00:19:48;101690;;;25;44.4
77954;BME280;67151;52.544;6.034;2023-05-09T00:20:03;101690;;;25;44.4
77954;BME280;67151;52.544;6.034;2023-05-09T00:20:18;101690;;;25;44.5
77954;BME280;67151;52.544;6.034;2023-05-09T00:20:33;101700;;;25;44.4
77954;BME280;67151;52.544;6.034;2023-05-09T00:20:47;101690;;;25;44.4
77954;BME280;67151;52.544;6.034;2023-05-09T00:21:03;101700;;;25;44.5
77954;BME280;67151;52.544;6.034;2023-05-09T00:21:18;101700;;;25;44.4
77954;BME280;67151;52.544;6.034;2023-05-09T00:21:32;101700;;;25;44.4
77954;BME280;67151;52.544;6.034;2023-05-09T00:21:48;101690;;;25;44.4
77954;BME280;67151;52.544;6.034;2023-05-09T00:22:03;101690;;;25;44.4
77954;BME280;67151;52.544;6.034;2023-05-09T00:22:18;101700;;;25;44.4
77954;BME280;67151;52.544;6.034;2023-05-09T00:22:32;101690;;;25;44.4
77954;BME280;67151;52.544;6.034;2023-05-09T00:22:47;101700;;;25;44.4
77954;BME280;67151;52.544;6.034;2023-05-09T00:23:03;101690;;;25;44.4
77954;BME280;67151;52.544;6.034;2023-05-09T00:23:17;101700;;;25;44.4
77954;BME280;67151;52.544;6.034;2023-05-09T00:23:33;101700;;;25.1;44.4
77954;BME280;67151;52.544;6.034;2023-05-09T00:23:47;101700;;;25.1;44.4
77954;BME280;67151;52.544;6.034;2023-05-09T00:24:03;101700;;;25.1;44.4
77954;BME280;67151;52.544;6.034;2023-05-09T00:24:18;101690;;;25.1;44.3
77954;BME280;67151;52.544;6.034;2023-05-09T00:24:32;101690;;;25;44.4
77954;BME280;67151;52.544;6.034;2023-05-09T00:24:48;101700;;;25;44.4
77954;BME280;67151;52.544;6.034;2023-05-09T00:25:03;101700;;;25;44.4
77954;BME280;67151;52.544;6.034;2023-05-09T00:25:17;101690;;;25;44.4
77954;BME280;67151;52.544;6.034;2023-05-09T00:25:32;101690;;;25;44.4
77954;BME280;67151;52.544;6.034;2023-05-09T00:25:47;101690;;;25.1;44.4
77954;BME280;67151;52.544;6.034;2023-05-09T00:26:03;101690;;;25;44.4
77954;BME280;67151;52.544;6.034;2023-05-09T00:26:18;101700;;;25;44.4
77954;BME280;67151;52.544;6.034;2023-05-09T00:26:33;101700;;;25.1;44.4
77954;BME280;67151;52.544;6.034;2023-05-09T00:26:48;101690;;;25.1;44.4
77954;BME280;67151;52.544;6.034;2023-05-09T00:27:03;101690;;;25;44.4
77954;BME280;67151;52.544;6.034;2023-05-09T00:27:18;101690;;;25.1;44.4
77954;BME280;67151;52.544;6.034;2023-05-09T00:27:33;101690;;;25;44.4
77954;BME280;67151;52.544;6.034;2023-05-09T00:27:47;101700;;;25;44.4
77954;BME280;67151;52.544;6.034;2023-05-09T00:28:03;101700;;;25;44.4
77954;BME280;67151;52.544;6.034;2023-05-09T00:28:17;101690;;;25;44.4
77954;BME280;67151;52.544;6.034;2023-05-09T00:28:32;101690;;;25;44.4
77954;BME280;67151;52.544;6.034;2023-05-09T00:28:48;101690;;;25;44.4
77954;BME280;67151;52.544;6.034;2023-05-09T00:29:02;101690;;;25;44.4
77954;BME280;67151;52.544;6.034;2023-05-09T00:29:17;101690;;;25;44.4
77954;BME280;67151;52.544;6.034;2023-05-09T00:29:33;101700;;;25;44.4
77954;BME280;67151;52.544;6.034;2023-05-09T00:29:47;101690;;;25;44.4
77954;BME280;67151;52.544;6.034;2023-05-09T00:30:03;101690;;;25;44.5
77954;BME280;67151;52.544;6.034;2023-05-09T00:30:17;101690;;;25;44.4
77954;BME280;67151;52.544;6.034;2023-05-09T00:30:33;101690;;;25;44.4
77954;BME280;67151;52.544;6.034;2023-05-09T00:30:47;101690;;;25;44.4
77954;BME280;67151;52.544;6.034;2023-05-09T00:31:03;101690;;;25;44.4
77954;BME280;67151;52.544;6.034;2023-05-09T00:31:18;101680;;;25;44.4
77954;BME280;67151;52.544;6.034;2023-05-09T00:31:33;101690;;;25;44.4
77954;BME280;67151;52.544;6.034;2023-05-09T00:31:48;101700;;;25;44.4
77954;BME280;67151;52.544;6.034;2023-05-09T00:32:03;101690;;;25;44.4
77954;BME280;67151;52.544;6.034;2023-05-09T00:32:17;101680;;;25;44.4
77954;BME280;67151;52.544;6.034;2023-05-09T00:32:33;101680;;;25;44.4
77954;BME280;67151;52.544;6.034;2023-05-09T00:32:47;101680;;;25;44.4
77954;BME280;67151;52.544;6.034;2023-05-09T00:33:03;101690;;;25;44.4
77954;BME280;67151;52.544;6.034;2023-05-09T00:33:17;101690;;;25;44.4
77954;BME280;67151;52.544;6.034;2023-05-09T00:33:33;101690;;;25;44.4
77954;BME280;67151;52.544;6.034;2023-05-09T00:33:47;101680;;;25;44.4
77954;BME280;67151;52.544;6.034;2023-05-09T00:34:03;101680;;;25;44.4
77954;BME280;67151;52.544;6.034;2023-05-09T00:34:18;101700;;;25;44.4
77954;BME280;67151;52.544;6.034;2023-05-09T00:34:32;101690;;;25.1;44.3
77954;BME280;67151;52.544;6.034;2023-05-09T00:34:49;101680;;;25.1;44.3
77954;BME280;67151;52.544;6.034;2023-05-09T00:35:03;101690;;;25.1;44.3
77954;BME280;67151;52.544;6.034;2023-05-09T00:35:17;101690;;;25;44.4
77954;BME280;67151;52.544;6.034;2023-05-09T00:35:33;101680;;;25;44.4
77954;BME280;67151;52.544;6.034;2023-05-09T00:35:47;101690;;;25;44.4
77954;BME280;67151;52.544;6.034;2023-05-09T00:36:03;101690;;;25;44.4
77954;BME280;67151;52.544;6.034;2023-05-09T00:36:17;101690;;;25;44.4
77954;BME280;67151;52.544;6.034;2023-05-09T00:36:32;101680;;;25;44.4
77954;BME280;67151;52.544;6.034;2023-05-09T00:36:47;101680;;;25;44.5
77954;BME280;67151;52.544;6.034;2023-05-09T00:37:03;101690;;;25;44.4
77954;BME280;67151;52.544;6.034;2023-05-09T00:37:18;101680;;;25;44.4
77954;BME280;67151;52.544;6.034;2023-05-09T00:37:33;101690;;;25;44.4
77954;BME280;67151;52.544;6.034;2023-05-09T00:37:48;101690;;;25;44.4
77954;BME280;67151;52.544;6.034;2023-05-09T00:38:02;101680;;;25;44.4
77954;BME280;67151;52.544;6.034;2023-05-09T00:38:17;101690;;;25;44.4
77954;BME280;67151;52.544;6.034;2023-05-09T00:38:33;101680;;;25;44.4
77954;BME280;67151;52.544;6.034;2023-05-09T00:38:48;101680;;;25;44.4
77954;BME280;67151;52.544;6.034;2023-05-09T00:39:02;101680;;;25;44.4
77954;BME280;67151;52.544;6.034;2023-05-09T00:39:17;101680;;;25;44.4
77954;BME280;67151;52.544;6.034;2023-05-09T00:39:32;101680;;;25;44.4
77954;BME280;67151;52.544;6.034;2023-05-09T00:39:47;101680;;;25;44.4
77954;BME280;67151;52.544;6.034;2023-05-09T00:40:03;101690;;;25;44.4
77954;BME280;67151;52.544;6.034;2023-05-09T00:40:17;101680;;;25;44.4
77954;BME280;67151;52.544;6.034;2023-05-09T00:40:32;101680;;;25;44.4
77954;BME280;67151;52.544;6.034;2023-05-09T00:40:48;101680;;;25;44.4
77954;BME280;67151;52.544;6.034;2023-05-09T00:41:03;101680;;;25;44.4
77954;BME280;67151;52.544;6.034;2023-05-09T00:41:18;101690;;;25;44.4
77954;BME280;67151;52.544;6.034;2023-05-09T00:41:33;101680;;;25.1;44.4
77954;BME280;67151;52.544;6.034;2023-05-09T00:41:47;101680;;;25;44.4
77954;BME280;67151;52.544;6.034;2023-05-09T00:42:03;101670;;;25;44.4
77954;BME280;67151;52.544;6.034;2023-05-09T00:42:18;101680;;;25;44.4
77954;BME280;67151;52.544;6.034;2023-05-09T00:42:32;101670;;;25;44.4
77954;BME280;67151;52.544;6.034;2023-05-09T00:42:47;101670;;;25;44.4
77954;BME280;67151;52.544;6.034;2023-05-09T00:43:03;101680;;;25;44.4
77954;BME280;67151;52.544;6.034;2023-05-09T00:43:17;101670;;;25;44.4
77954;BME280;67151;52.544;6.034;2023-05-09T00:43:33;101670;;;25;44.4
77954;BME280;67151;52.544;6.034;2023-05-09T00:43:47;101670;;;25;44.4
77954;BME280;67151;52.544;6.034;2023-05-09T00:44:03;101670;;;25;44.4
77954;BME280;67151;52.544;6.034;2023-05-09T00:44:17;101670;;;25;44.4
77954;BME280;67151;52.544;6.034;2023-05-09T00:44:33;101670;;;25;44.4
77954;BME280;67151;52.544;6.034;2023-05-09T00:44:48;101670;;;25;44.4
77954;BME280;67151;52.544;6.034;2023-05-09T00:45:03;101670;;;25;44.4
77954;BME280;67151;52.544;6.034;2023-05-09T00:45:18;101670;;;25;44.4
77954;BME280;67151;52.544;6.034;2023-05-09T00:45:32;101670;;;25;44.4
77954;BME280;67151;52.544;6.034;2023-05-09T00:45:47;101670;;;25;44.5
77954;BME280;67151;52.544;6.034;2023-05-09T00:46:03;101660;;;25;44.4
77954;BME280;67151;52.544;6.034;2023-05-09T00:46:17;101670;;;25;44.4
77954;BME280;67151;52.544;6.034;2023-05-09T00:46:33;101670;;;25;44.4
77954;BME280;67151;52.544;6.034;2023-05-09T00:46:48;101660;;;25;44.4
77954;BME280;67151;52.544;6.034;2023-05-09T00:47:03;101660;;;25;44.5
77954;BME280;67151;52.544;6.034;2023-05-09T00:47:18;101670;;;25;44.5
77954;BME280;67151;52.544;6.034;2023-05-09T00:47:33;101660;;;25;44.4
77954;BME280;67151;52.544;6.034;2023-05-09T00:47:47;101660;;;25;44.5
77954;BME280;67151;52.544;6.034;2023-05-09T00:48:03;101660;;;25;44.5
77954;BME280;67151;52.544;6.034;2023-05-09T00:48:17;101660;;;25;44.5
77954;BME280;67151;52.544;6.034;2023-05-09T00:48:33;101660;;;25;44.5
77954;BME280;67151;52.544;6.034;2023-05-09T00:48:48;101660;;;25;44.5
77954;BME280;67151;52.544;6.034;2023-05-09T00:49:02;101660;;;25;44.4
77954;BME280;67151;52.544;6.034;2023-05-09T00:49:17;101660;;;25;44.4
77954;BME280;67151;52.544;6.034;2023-05-09T00:49:32;101660;;;25;44.4
77954;BME280;67151;52.544;6.034;2023-05-09T00:49:47;101660;;;25;44.4
77954;BME280;67151;52.544;6.034;2023-05-09T00:50:03;101660;;;25;44.4
77954;BME280;67151;52.544;6.034;2023-05-09T00:50:18;101660;;;25;44.4
77954;BME280;67151;52.544;6.034;2023-05-09T00:50:33;101650;;;25;44.4
77954;BME280;67151;52.544;6.034;2023-05-09T00:50:48;101660;;;25;44.4
77954;BME280;67151;52.544;6.034;2023-05-09T00:51:02;101660;;;25;44.5
77954;BME280;67151;52.544;6.034;2023-05-09T00:51:17;101650;;;25;44.5
77954;BME280;67151;52.544;6.034;2023-05-09T00:51:33;101650;;;25;44.4
77954;BME280;67151;52.544;6.034;2023-05-09T00:51:47;101650;;;25;44.4
77954;BME280;67151;52.544;6.034;2023-05-09T00:52:03;101650;;;25;44.4
77954;BME280;67151;52.544;6.034;2023-05-09T00:52:18;101650;;;25;44.4
77954;BME280;67151;52.544;6.034;2023-05-09T00:52:32;101650;;;25;44.4
77954;BME280;67151;52.544;6.034;2023-05-09T00:52:47;101650;;;25;44.4
77954;BME280;67151;52.544;6.034;2023-05-09T00:53:03;101650;;;25;44.4
77954;BME280;67151;52.544;6.034;2023-05-09T00:53:18;101650;;;25;44.4
77954;BME280;67151;52.544;6.034;2023-05-09T00:53:33;101660;;;25;44.4
77954;BME280;67151;52.544;6.034;2023-05-09T00:53:47;101660;;;25;44.4
77954;BME280;67151;52.544;6.034;2023-05-09T00:54:02;101650;;;25;44.5
77954;BME280;67151;52.544;6.034;2023-05-09T00:54:17;101650;;;25;44.5
77954;BME280;67151;52.544;6.034;2023-05-09T00:54:32;101650;;;25;44.5
77954;BME280;67151;52.544;6.034;2023-05-09T00:54:48;101650;;;25;44.5
77954;BME280;67151;52.544;6.034;2023-05-09T00:55:03;101650;;;25;44.5
77954;BME280;67151;52.544;6.034;2023-05-09T00:55:18;101640;;;25;44.5
77954;BME280;67151;52.544;6.034;2023-05-09T00:55:32;101640;;;25;44.5
77954;BME280;67151;52.544;6.034;2023-05-09T00:55:47;101640;;;25;44.5
77954;BME280;67151;52.544;6.034;2023-05-09T00:56:03;101650;;;25;44.4
77954;BME280;67151;52.544;6.034;2023-05-09T00:56:17;101650;;;25;44.5
77954;BME280;67151;52.544;6.034;2023-05-09T00:56:33;101640;;;25;44.5
77954;BME280;67151;52.544;6.034;2023-05-09T00:56:47;101650;;;25;44.4
77954;BME280;67151;52.544;6.034;2023-05-09T00:57:03;101650;;;25;44.4
77954;BME280;67151;52.544;6.034;2023-05-09T00:57:18;101650;;;25;44.5
77954;BME280;67151;52.544;6.034;2023-05-09T00:57:32;101650;;;25;44.4
77954;BME280;67151;52.544;6.034;2023-05-09T00:57:47;101650;;;25;44.4
77954;BME280;67151;52.544;6.034;2023-05-09T00:58:03;101650;;;25;44.4
77954;BME280;67151;52.544;6.034;2023-05-09T00:58:17;101640;;;25;44.4
77954;BME280;67151;52.544;6.034;2023-05-09T00:58:32;101640;;;25;44.4
77954;BME280;67151;52.544;6.034;2023-05-09T00:58:47;101640;;;25;44.4
77954;BME280;67151;52.544;6.034;2023-05-09T00:59:02;101650;;;25;44.5
77954;BME280;67151;52.544;6.034;2023-05-09T00:59:17;101650;;;25;44.5
77954;BME280;67151;52.544;6.034;2023-05-09T00:59:33;101650;;;25;44.5
77954;BME280;67151;52.544;6.034;2023-05-09T00:59:48;101650;;;25;44.4
77954;BME280;67151;52.544;6.034;2023-05-09T01:00:03;101640;;;25;44.4
77954;BME280;67151;52.544;6.034;2023-05-09T01:00:17;101650;;;25;44.4
77954;BME280;67151;52.544;6.034;2023-05-09T01:00:33;101650;;;25;44.4
77954;BME280;67151;52.544;6.034;2023-05-09T01:00:47;101640;;;25;44.4
77954;BME280;67151;52.544;6.034;2023-05-09T01:01:03;101650;;;25;44.4
77954;BME280;67151;52.544;6.034;2023-05-09T01:01:17;101640;;;25;44.4
77954;BME280;67151;52.544;6.034;2023-05-09T01:01:32;101650;;;25;44.4
77954;BME280;67151;52.544;6.034;2023-05-09T01:01:48;101650;;;25;44.5
77954;BME280;67151;52.544;6.034;2023-05-09T01:02:03;101640;;;25;44.5
77954;BME280;67151;52.544;6.034;2023-05-09T01:02:18;101640;;;25;44.5
77954;BME280;67151;52.544;6.034;2023-05-09T01:02:32;101640;;;25;44.5
77954;BME280;67151;52.544;6.034;2023-05-09T01:02:49;101650;;;25;44.5
77954;BME280;67151;52.544;6.034;2023-05-09T01:03:02;101640;;;25;44.5
77954;BME280;67151;52.544;6.034;2023-05-09T01:03:17;101650;;;25;44.5
77954;BME280;67151;52.544;6.034;2023-05-09T01:03:32;101650;;;25;44.5
77954;BME280;67151;52.544;6.034;2023-05-09T01:03:48;101650;;;25;44.5
77954;BME280;67151;52.544;6.034;2023-05-09T01:04:03;101650;;;25;44.5
77954;BME280;67151;52.544;6.034;2023-05-09T01:04:17;101650;;;25;44.5
77954;BME280;67151;52.544;6.034;2023-05-09T01:04:32;101640;;;25;44.5
77954;BME280;67151;52.544;6.034;2023-05-09T01:04:48;101650;;;25;44.5
77954;BME280;67151;52.544;6.034;2023-05-09T01:05:03;101650;;;25;44.5
77954;BME280;67151;52.544;6.034;2023-05-09T01:05:18;101650;;;25;44.5
77954;BME280;67151;52.544;6.034;2023-05-09T01:05:34;101650;;;25;44.5
77954;BME280;67151;52.544;6.034;2023-05-09T01:05:51;101650;;;25;44.5
77954;BME280;67151;52.544;6.034;2023-05-09T01:06:04;101650;;;25;44.5
77954;BME280;67151;52.544;6.034;2023-05-09T01:06:19;101650;;;25;44.5
77954;BME280;67151;52.544;6.034;2023-05-09T01:06:35;101650;;;25;44.5
77954;BME280;67151;52.544;6.034;2023-05-09T01:06:51;101650;;;25;44.5
77954;BME280;67151;52.544;6.034;2023-05-09T01:07:05;101650;;;25;44.5
77954;BME280;67151;52.544;6.034;2023-05-09T01:07:21;101650;;;25;44.4
77954;BME280;67151;52.544;6.034;2023-05-09T01:07:34;101650;;;25;44.4
77954;BME280;67151;52.544;6.034;2023-05-09T01:07:49;101650;;;25;44.4
77954;BME280;67151;52.544;6.034;2023-05-09T01:08:05;101650;;;25;44.5
77954;BME280;67151;52.544;6.034;2023-05-09T01:08:20;101640;;;25;44.5
77954;BME280;67151;52.544;6.034;2023-05-09T01:08:35;101650;;;25;44.5
77954;BME280;67151;52.544;6.034;2023-05-09T01:08:50;101650;;;25;44.5
77954;BME280;67151;52.544;6.034;2023-05-09T01:09:05;101650;;;25;44.5
77954;BME280;67151;52.544;6.034;2023-05-09T01:09:18;101640;;;25;44.5
77954;BME280;67151;52.544;6.034;2023-05-09T01:09:34;101630;;;25;44.5
77954;BME280;67151;52.544;6.034;2023-05-09T01:09:50;101650;;;25;44.5
77954;BME280;67151;52.544;6.034;2023-05-09T01:10:05;101640;;;25;44.5
77954;BME280;67151;52.544;6.034;2023-05-09T01:10:19;101650;;;25;44.5
77954;BME280;67151;52.544;6.034;2023-05-09T01:10:34;101640;;;25;44.5
77954;BME280;67151;52.544;6.034;2023-05-09T01:10:49;101650;;;25;44.5
77954;BME280;67151;52.544;6.034;2023-05-09T01:11:05;101640;;;25;44.5
77954;BME280;67151;52.544;6.034;2023-05-09T01:11:19;101650;;;25;44.5
77954;BME280;67151;52.544;6.034;2023-05-09T01:11:33;101640;;;25;44.5
77954;BME280;67151;52.544;6.034;2023-05-09T01:11:49;101640;;;25;44.5
77954;BME280;67151;52.544;6.034;2023-05-09T01:12:06;101640;;;25;44.4
77954;BME280;67151;52.544;6.034;2023-05-09T01:12:21;101640;;;25;44.4
77954;BME280;67151;52.544;6.034;2023-05-09T01:12:33;101650;;;25;44.4
77954;BME280;67151;52.544;6.034;2023-05-09T01:12:48;101640;;;25;44.4
77954;BME280;67151;52.544;6.034;2023-05-09T01:13:03;101650;;;25;44.4
77954;BME280;67151;52.544;6.034;2023-05-09T01:13:20;101640;;;25;44.4
77954;BME280;67151;52.544;6.034;2023-05-09T01:13:35;101640;;;25.1;44.4
77954;BME280;67151;52.544;6.034;2023-05-09T01:13:49;101640;;;25;44.4
77954;BME280;67151;52.544;6.034;2023-05-09T01:14:04;101640;;;25.1;44.4
77954;BME280;67151;52.544;6.034;2023-05-09T01:14:21;101640;;;25.1;44.3
77954;BME280;67151;52.544;6.034;2023-05-09T01:14:36;101640;;;25.1;44.3
77954;BME280;67151;52.544;6.034;2023-05-09T01:14:49;101640;;;25.1;44.3
77954;BME280;67151;52.544;6.034;2023-05-09T01:15:04;101630;;;25.1;44.3
77954;BME280;67151;52.544;6.034;2023-05-09T01:15:19;101640;;;25.1;44.3
77954;BME280;67151;52.544;6.034;2023-05-09T01:15:34;101640;;;25.1;44.3
77954;BME280;67151;52.544;6.034;2023-05-09T01:15:50;101630;;;25.1;44.3
77954;BME280;67151;52.544;6.034;2023-05-09T01:16:05;101640;;;25.1;44.3
77954;BME280;67151;52.544;6.034;2023-05-09T01:16:18;101630;;;25.1;44.3
77954;BME280;67151;52.544;6.034;2023-05-09T01:16:34;101640;;;25.1;44.3
77954;BME280;67151;52.544;6.034;2023-05-09T01:16:49;101630;;;25.1;44.3
77954;BME280;67151;52.544;6.034;2023-05-09T01:17:04;101630;;;25.1;44.2
77954;BME280;67151;52.544;6.034;2023-05-09T01:17:20;101630;;;25.1;44.3
77954;BME280;67151;52.544;6.034;2023-05-09T01:17:35;101640;;;25.1;44.2
77954;BME280;67151;52.544;6.034;2023-05-09T01:17:48;101620;;;25.1;44.2
77954;BME280;67151;52.544;6.034;2023-05-09T01:18:05;101630;;;25.1;44.2
77954;BME280;67151;52.544;6.034;2023-05-09T01:18:19;101630;;;25.1;44.2
77954;BME280;67151;52.544;6.034;2023-05-09T01:18:34;101630;;;25.1;44.2
77954;BME280;67151;52.544;6.034;2023-05-09T01:18:48;101630;;;25.2;44.2
77954;BME280;67151;52.544;6.034;2023-05-09T01:19:06;101630;;;25.2;44.1
77954;BME280;67151;52.544;6.034;2023-05-09T01:19:28;101630;;;25.2;44.1
77954;BME280;67151;52.544;6.034;2023-05-09T01:19:35;101630;;;25.1;44.1
77954;BME280;67151;52.544;6.034;2023-05-09T01:19:51;101630;;;25.2;44.1
77954;BME280;67151;52.544;6.034;2023-05-09T01:20:05;101620;;;25.1;43.8
77954;BME280;67151;52.544;6.034;2023-05-09T01:20:19;101620;;;25.2;44.1
77954;BME280;67151;52.544;6.034;2023-05-09T01:20:34;101630;;;25.2;44.1
77954;BME280;67151;52.544;6.034;2023-05-09T01:20:50;101630;;;25.2;44.1
77954;BME280;67151;52.544;6.034;2023-05-09T01:21:04;101630;;;25.2;44.1
77954;BME280;67151;52.544;6.034;2023-05-09T01:21:19;101620;;;25.2;44.2
77954;BME280;67151;52.544;6.034;2023-05-09T01:21:32;101620;;;25.2;44.1
77954;BME280;67151;52.544;6.034;2023-05-09T01:21:48;101620;;;25.2;44.1
77954;BME280;67151;52.544;6.034;2023-05-09T01:22:03;101630;;;25.2;44.1
77954;BME280;67151;52.544;6.034;2023-05-09T01:22:18;101630;;;25.2;44
77954;BME280;67151;52.544;6.034;2023-05-09T01:22:33;101620;;;25.2;44
77954;BME280;67151;52.544;6.034;2023-05-09T01:22:54;101620;;;25.2;44
77954;BME280;67151;52.544;6.034;2023-05-09T01:23:09;101630;;;25.2;44
77954;BME280;67151;52.544;6.034;2023-05-09T01:23:24;101620;;;25.2;44
77954;BME280;67151;52.544;6.034;2023-05-09T01:23:39;101620;;;25.2;44
77954;BME280;67151;52.544;6.034;2023-05-09T01:23:53;101620;;;25.2;44
77954;BME280;67151;52.544;6.034;2023-05-09T01:24:22;101620;;;25.2;44
77954;BME280;67151;52.544;6.034;2023-05-09T01:24:24;101620;;;25.2;44
77954;BME280;67151;52.544;6.034;2023-05-09T01:24:38;101630;;;25.2;44
77954;BME280;67151;52.544;6.034;2023-05-09T01:24:55;101620;;;25.2;44
77954;BME280;67151;52.544;6.034;2023-05-09T01:25:11;101620;;;25.2;44
77954;BME280;67151;52.544;6.034;2023-05-09T01:25:34;101620;;;25.2;44
77954;BME280;67151;52.544;6.034;2023-05-09T01:25:35;101630;;;25.2;44